Time;durP1;ratioP1;P1;durP2;ratioP2;P2;SDS_P1;SDS_P2;PMS_P1;PMS_P2;Temp;Humidity;BMP_temperature;BMP_pressure;BME280_temperature;BME280_humidity;BME280_pressure;Samples;Min_cycle;Max_cycle;Signal;HPM_P1;HPM_P2
2023/11/16 00:00:42;;;;;;;56.95;52.95;;;;;;;;;;5011989;28;25053;-71
2023/11/16 00:03:12;;;;;;;61.10;56.67;;;;;;;;;;5013534;28;25063;-71
2023/11/16 00:05:38;;;;;;;62.58;58.28;;;;;;;;;;5013657;28;25061;-72
2023/11/16 00:08:07;;;;;;;60.60;55.88;;;;;;;;;;5011475;28;25062;-71
2023/11/16 00:10:37;;;;;;;63.10;58.65;;;;;;;;;;5012489;28;25052;-71
2023/11/16 00:13:04;;;;;;;65.75;60.85;;;;;;;;;;5016773;28;25062;-70
2023/11/16 00:15:30;;;;;;;62.95;58.47;;;;;;;;;;5011107;28;25099;-71
2023/11/16 00:17:57;;;;;;;67.65;63.05;;;;;;;;;;5015295;28;25081;-72
2023/11/16 00:20:23;;;;;;;67.45;62.20;;;;;;;;;;5013698;28;25054;-71
2023/11/16 00:22:49;;;;;;;64.45;59.78;;;;;;;;;;5014467;28;25169;-70
2023/11/16 00:25:19;;;;;;;62.13;57.92;;;;;;;;;;5013347;28;25058;-72
2023/11/16 00:27:45;;;;;;;63.40;58.65;;;;;;;;;;5014414;28;25069;-70
2023/11/16 00:30:12;;;;;;;63.30;57.92;;;;;;;;;;5016907;28;25103;-70
2023/11/16 00:32:39;;;;;;;61.75;57.00;;;;;;;;;;5018868;28;25076;-71
2023/11/16 00:35:06;;;;;;;63.08;58.40;;;;;;;;;;5018355;28;25081;-69
2023/11/16 00:37:32;;;;;;;60.70;56.17;;;;;;;;;;5018603;28;25069;-71
2023/11/16 00:39:59;;;;;;;59.55;55.10;;;;;;;;;;5017953;28;25074;-71
2023/11/16 00:42:25;;;;;;;58.05;53.40;;;;;;;;;;5011836;28;25068;-70
2023/11/16 00:44:52;;;;;;;57.33;53.28;;;;;;;;;;5014147;28;25052;-70
2023/11/16 00:47:18;;;;;;;61.03;56.85;;;;;;;;;;5012753;28;25057;-70
2023/11/16 00:49:44;;;;;;;55.03;50.85;;;;;;;;;;5012868;28;25064;-72
2023/11/16 00:52:11;;;;;;;56.92;52.45;;;;;;;;;;5010665;28;25063;-69
2023/11/16 00:54:37;;;;;;;53.78;49.58;;;;;;;;;;5009128;28;25040;-70
2023/11/16 00:57:03;;;;;;;72.43;66.70;;;;;;;;;;5010889;28;25092;-70
2023/11/16 00:59:30;;;;;;;98.05;90.95;;;;;;;;;;5011484;28;25077;-69
2023/11/16 01:01:58;;;;;;;78.18;71.40;;;;;;;;;;5004124;28;25132;-69
2023/11/16 01:04:26;;;;;;;91.03;83.10;;;;;;;;;;5005583;28;25079;-69
2023/11/16 01:06:53;;;;;;;78.88;72.30;;;;;;;;;;5010370;28;25109;-69
2023/11/16 01:09:20;;;;;;;105.85;97.75;;;;;;;;;;5005540;28;25080;-69
2023/11/16 01:11:46;;;;;;;145.40;132.68;;;;;;;;;;5008985;28;25073;-69
2023/11/16 01:14:16;;;;;;;161.50;147.02;;;;;;;;;;5009746;28;25388;-72
2023/11/16 01:16:44;;;;;;;154.45;141.40;;;;;;;;;;5007741;28;25128;-70
2023/11/16 01:19:12;;;;;;;163.95;150.10;;;;;;;;;;5010131;28;25111;-71
2023/11/16 01:21:44;;;;;;;195.73;178.40;;;;;;;;;;5009622;28;25091;-69
2023/11/16 01:24:10;;;;;;;173.95;159.43;;;;;;;;;;5008005;28;25052;-70
2023/11/16 01:26:39;;;;;;;190.32;173.52;;;;;;;;;;5007262;28;25067;-71
2023/11/16 01:29:08;;;;;;;189.23;172.60;;;;;;;;;;5009424;28;25059;-69
2023/11/16 01:31:35;;;;;;;166.73;152.60;;;;;;;;;;5008625;28;25120;-70
2023/11/16 01:34:01;;;;;;;170.02;155.20;;;;;;;;;;5008345;28;25129;-69
2023/11/16 01:36:27;;;;;;;166.73;152.13;;;;;;;;;;5010713;28;25081;-69
2023/11/16 01:38:53;;;;;;;183.77;168.57;;;;;;;;;;5011705;28;25071;-71
2023/11/16 01:41:19;;;;;;;169.05;154.45;;;;;;;;;;5007615;28;25157;-71
2023/11/16 01:43:46;;;;;;;183.05;167.75;;;;;;;;;;5009411;28;25138;-71
2023/11/16 01:46:12;;;;;;;129.15;119.32;;;;;;;;;;5010137;28;25166;-71
2023/11/16 01:48:45;;;;;;;173.32;158.88;;;;;;;;;;5010873;28;25166;-69
2023/11/16 01:51:13;;;;;;;189.40;173.50;;;;;;;;;;5006677;28;25053;-70
2023/11/16 01:53:45;;;;;;;149.85;137.18;;;;;;;;;;5005477;28;25072;-70
2023/11/16 01:56:12;;;;;;;149.98;137.40;;;;;;;;;;5011756;28;25091;-69
2023/11/16 01:58:39;;;;;;;153.77;140.70;;;;;;;;;;5006128;28;25082;-70
2023/11/16 02:01:05;;;;;;;153.40;140.65;;;;;;;;;;5012581;28;25085;-69
2023/11/16 02:03:31;;;;;;;146.75;134.57;;;;;;;;;;5011089;28;25072;-71
2023/11/16 02:05:58;;;;;;;142.40;130.80;;;;;;;;;;5006642;28;25062;-70
2023/11/16 02:08:24;;;;;;;142.68;131.30;;;;;;;;;;5016948;28;25098;-70
2023/11/16 02:10:53;;;;;;;148.77;136.70;;;;;;;;;;5015618;28;25085;-70
2023/11/16 02:13:26;;;;;;;144.75;133.18;;;;;;;;;;5015366;28;25079;-69
2023/11/16 02:15:56;;;;;;;144.20;132.65;;;;;;;;;;5012551;28;25127;-70
2023/11/16 02:18:22;;;;;;;141.40;130.77;;;;;;;;;;5012548;28;25078;-69
2023/11/16 02:20:48;;;;;;;142.60;131.40;;;;;;;;;;5012615;28;25059;-68
2023/11/16 02:23:18;;;;;;;141.02;130.10;;;;;;;;;;5014256;28;25095;-71
2023/11/16 02:25:49;;;;;;;140.45;129.70;;;;;;;;;;5009571;28;25063;-72
2023/11/16 02:28:15;;;;;;;141.32;130.40;;;;;;;;;;5007981;28;25166;-69
2023/11/16 02:30:41;;;;;;;149.63;137.95;;;;;;;;;;5008389;28;25092;-70
2023/11/16 02:33:07;;;;;;;142.05;131.35;;;;;;;;;;5009060;28;25081;-70
2023/11/16 02:35:34;;;;;;;151.20;139.20;;;;;;;;;;5007554;28;25073;-70
2023/11/16 02:38:00;;;;;;;183.85;168.57;;;;;;;;;;5007752;28;25089;-70
2023/11/16 02:40:27;;;;;;;223.73;205.38;;;;;;;;;;5008150;28;25343;-69
2023/11/16 02:42:53;;;;;;;199.43;181.82;;;;;;;;;;5008673;28;25059;-69
2023/11/16 02:45:23;;;;;;;177.40;161.80;;;;;;;;;;5009904;28;25054;-70
2023/11/16 02:47:52;;;;;;;169.18;154.48;;;;;;;;;;5008602;28;25057;-69
2023/11/16 02:50:19;;;;;;;162.27;148.13;;;;;;;;;;5003560;28;25051;-69
2023/11/16 02:52:45;;;;;;;154.88;141.50;;;;;;;;;;5010294;28;25050;-69
2023/11/16 02:55:12;;;;;;;159.13;144.77;;;;;;;;;;5010717;28;25094;-69
2023/11/16 02:57:39;;;;;;;158.18;144.52;;;;;;;;;;5012524;28;25091;-69
2023/11/16 03:00:06;;;;;;;145.35;132.95;;;;;;;;;;5006629;28;25115;-70
2023/11/16 03:02:32;;;;;;;145.02;132.80;;;;;;;;;;5012051;28;25075;-70
2023/11/16 03:04:58;;;;;;;137.27;125.53;;;;;;;;;;5008124;28;25049;-70
2023/11/16 03:07:24;;;;;;;139.82;128.43;;;;;;;;;;5008748;28;25078;-70
2023/11/16 03:09:50;;;;;;;135.75;124.35;;;;;;;;;;5011474;28;25078;-71
2023/11/16 03:12:18;;;;;;;134.63;124.10;;;;;;;;;;5005005;28;25062;-70
2023/11/16 03:14:44;;;;;;;133.70;123.22;;;;;;;;;;5010093;28;25047;-71
2023/11/16 03:17:11;;;;;;;133.60;122.90;;;;;;;;;;5010581;28;25113;-70
2023/11/16 03:19:41;;;;;;;133.07;122.38;;;;;;;;;;5003882;28;25066;-70
2023/11/16 03:22:07;;;;;;;143.65;132.35;;;;;;;;;;5012912;28;25060;-70
2023/11/16 03:24:34;;;;;;;137.50;126.65;;;;;;;;;;5014813;28;25054;-70
2023/11/16 03:27:00;;;;;;;135.35;124.70;;;;;;;;;;5013926;28;25141;-71
2023/11/16 03:29:26;;;;;;;135.45;125.35;;;;;;;;;;5014846;28;25067;-70
2023/11/16 03:31:52;;;;;;;146.90;135.40;;;;;;;;;;5008922;28;25049;-72
2023/11/16 03:34:18;;;;;;;138.65;127.68;;;;;;;;;;5014401;28;25090;-70
2023/11/16 03:36:44;;;;;;;136.65;126.35;;;;;;;;;;5008762;28;25089;-69
2023/11/16 03:39:12;;;;;;;134.25;124.22;;;;;;;;;;5013293;28;25107;-70
2023/11/16 03:41:39;;;;;;;130.15;120.53;;;;;;;;;;5015384;28;25065;-69
2023/11/16 03:44:05;;;;;;;130.00;120.60;;;;;;;;;;5015395;28;25081;-69
2023/11/16 03:46:32;;;;;;;126.68;117.40;;;;;;;;;;5010813;28;25064;-70
2023/11/16 03:48:57;;;;;;;132.68;123.35;;;;;;;;;;5015828;28;25068;-70
2023/11/16 03:51:29;;;;;;;129.05;119.95;;;;;;;;;;5014771;28;25069;-70
2023/11/16 03:53:59;;;;;;;130.10;120.43;;;;;;;;;;5010147;28;25076;-70
2023/11/16 03:56:25;;;;;;;129.45;119.78;;;;;;;;;;5012637;28;25137;-70
2023/11/16 03:58:51;;;;;;;133.50;123.70;;;;;;;;;;5010429;28;25064;-70
2023/11/16 04:01:18;;;;;;;136.02;126.00;;;;;;;;;;5015429;28;25055;-72
2023/11/16 04:03:44;;;;;;;133.52;123.78;;;;;;;;;;5019574;28;25063;-71
2023/11/16 04:06:22;;;;;;;136.70;126.65;;;;;;;;;;5020367;28;25061;-71
2023/11/16 04:08:48;;;;;;;135.15;125.00;;;;;;;;;;5017614;28;25086;-72
2023/11/16 04:11:17;;;;;;;136.00;126.05;;;;;;;;;;5016827;28;25084;-70
2023/11/16 04:13:44;;;;;;;140.48;130.48;;;;;;;;;;5015219;28;25066;-70
2023/11/16 04:16:21;;;;;;;137.15;126.78;;;;;;;;;;5016276;28;25095;-71
2023/11/16 04:18:51;;;;;;;151.60;140.32;;;;;;;;;;5014306;28;25117;-72
2023/11/16 04:21:21;;;;;;;151.18;139.85;;;;;;;;;;5012346;28;25136;-70
2023/11/16 04:23:52;;;;;;;150.88;139.48;;;;;;;;;;5011271;28;25084;-70
2023/11/16 04:26:20;;;;;;;167.25;154.77;;;;;;;;;;5010235;28;25059;-70
2023/11/16 04:28:47;;;;;;;160.45;148.40;;;;;;;;;;5010833;28;25086;-70
2023/11/16 04:31:13;;;;;;;157.77;145.93;;;;;;;;;;5012465;28;25154;-70
2023/11/16 04:33:40;;;;;;;152.15;141.00;;;;;;;;;;5012316;28;25169;-69
2023/11/16 04:36:07;;;;;;;152.77;141.15;;;;;;;;;;5009669;28;25140;-70
2023/11/16 04:38:34;;;;;;;150.63;139.38;;;;;;;;;;5008707;28;25078;-71
2023/11/16 04:41:02;;;;;;;151.57;140.38;;;;;;;;;;5012924;28;25076;-69
2023/11/16 04:43:30;;;;;;;153.13;141.73;;;;;;;;;;5013558;28;25079;-70
2023/11/16 04:45:56;;;;;;;145.55;134.85;;;;;;;;;;5007217;28;25063;-69
2023/11/16 04:48:22;;;;;;;143.82;132.13;;;;;;;;;;5010473;28;25067;-70
2023/11/16 04:50:48;;;;;;;141.57;130.88;;;;;;;;;;5011710;28;25062;-68
2023/11/16 04:53:18;;;;;;;152.93;141.50;;;;;;;;;;5012597;28;25072;-71
2023/11/16 04:55:44;;;;;;;146.18;135.00;;;;;;;;;;5012781;28;25058;-70
2023/11/16 04:58:10;;;;;;;142.80;132.10;;;;;;;;;;5013455;28;25053;-70
2023/11/16 05:00:36;;;;;;;140.73;130.00;;;;;;;;;;5013356;28;25099;-71
2023/11/16 05:03:02;;;;;;;135.65;125.50;;;;;;;;;;5012587;28;25075;-69
2023/11/16 05:05:28;;;;;;;138.25;128.10;;;;;;;;;;5008238;28;25059;-70
2023/11/16 05:07:54;;;;;;;139.55;129.15;;;;;;;;;;5009679;28;25059;-70
2023/11/16 05:10:20;;;;;;;143.10;132.80;;;;;;;;;;5009022;28;25047;-71
2023/11/16 05:12:48;;;;;;;137.82;127.13;;;;;;;;;;5013874;28;25057;-70
2023/11/16 05:15:16;;;;;;;144.15;132.23;;;;;;;;;;5007542;28;25147;-70
2023/11/16 05:17:43;;;;;;;148.00;136.15;;;;;;;;;;5009208;28;25078;-71
2023/11/16 05:20:09;;;;;;;146.18;135.13;;;;;;;;;;5010392;28;25072;-70
2023/11/16 05:22:35;;;;;;;147.73;136.32;;;;;;;;;;5012408;28;25150;-70
2023/11/16 05:25:01;;;;;;;158.63;145.75;;;;;;;;;;5006876;28;25083;-68
2023/11/16 05:27:27;;;;;;;144.68;133.65;;;;;;;;;;5012273;28;25064;-70
2023/11/16 05:29:53;;;;;;;146.27;134.90;;;;;;;;;;5011547;28;25081;-69
2023/11/16 05:32:19;;;;;;;146.27;134.18;;;;;;;;;;5011991;28;25051;-70
2023/11/16 05:34:46;;;;;;;146.35;135.07;;;;;;;;;;5010751;28;25071;-69
2023/11/16 05:37:12;;;;;;;140.00;128.63;;;;;;;;;;5004289;28;25052;-69
2023/11/16 05:39:38;;;;;;;141.02;129.20;;;;;;;;;;5010965;28;25064;-70
2023/11/16 05:42:06;;;;;;;144.90;133.18;;;;;;;;;;5010078;28;25074;-69
2023/11/16 05:44:36;;;;;;;141.50;129.75;;;;;;;;;;5005111;28;25070;-69
2023/11/16 05:47:03;;;;;;;141.93;130.50;;;;;;;;;;5011691;28;25060;-69
2023/11/16 05:49:29;;;;;;;146.20;133.80;;;;;;;;;;5012070;28;25063;-70
2023/11/16 05:51:55;;;;;;;142.93;130.98;;;;;;;;;;5009636;28;25098;-69
2023/11/16 05:54:21;;;;;;;140.45;128.55;;;;;;;;;;5006780;28;25053;-70
2023/11/16 05:56:48;;;;;;;142.13;129.77;;;;;;;;;;5008698;28;25145;-69
2023/11/16 05:59:15;;;;;;;140.93;129.00;;;;;;;;;;5010596;28;25156;-69
2023/11/16 06:01:45;;;;;;;140.77;128.93;;;;;;;;;;5009877;28;25086;-67
2023/11/16 06:04:11;;;;;;;139.23;127.95;;;;;;;;;;5012488;28;25097;-70
2023/11/16 06:06:37;;;;;;;140.10;128.82;;;;;;;;;;5008692;28;25059;-68
2023/11/16 06:09:04;;;;;;;146.20;133.98;;;;;;;;;;5011102;28;25083;-70
2023/11/16 06:11:31;;;;;;;140.32;128.65;;;;;;;;;;5009262;28;25111;-70
2023/11/16 06:13:58;;;;;;;135.65;124.97;;;;;;;;;;5011609;28;25100;-70
2023/11/16 06:16:24;;;;;;;139.52;127.72;;;;;;;;;;5003488;28;25054;-70
2023/11/16 06:18:51;;;;;;;135.10;124.13;;;;;;;;;;4999700;28;25148;-70
2023/11/16 06:21:17;;;;;;;136.20;125.53;;;;;;;;;;5005262;28;25072;-73
2023/11/16 06:23:43;;;;;;;134.93;124.75;;;;;;;;;;5007757;28;25050;-71
2023/11/16 06:26:09;;;;;;;142.13;130.68;;;;;;;;;;5012368;28;25075;-70
2023/11/16 06:28:35;;;;;;;142.15;130.32;;;;;;;;;;5010056;28;25076;-70
2023/11/16 06:31:01;;;;;;;139.30;128.35;;;;;;;;;;5001320;28;25063;-72
2023/11/16 06:33:27;;;;;;;137.27;126.15;;;;;;;;;;5004443;28;25070;-71
2023/11/16 06:35:54;;;;;;;137.88;126.88;;;;;;;;;;5004826;28;25067;-70
2023/11/16 06:38:20;;;;;;;135.18;124.20;;;;;;;;;;5000397;28;25056;-71
2023/11/16 06:40:46;;;;;;;133.75;122.70;;;;;;;;;;5004122;28;25139;-70
2023/11/16 06:43:12;;;;;;;145.13;133.52;;;;;;;;;;5004813;28;25048;-71
2023/11/16 06:45:44;;;;;;;141.25;129.80;;;;;;;;;;5005163;28;25116;-69
2023/11/16 06:48:10;;;;;;;140.73;128.88;;;;;;;;;;5004126;28;25078;-70
2023/11/16 06:50:38;;;;;;;141.60;129.55;;;;;;;;;;5006940;28;25126;-70
2023/11/16 06:53:09;;;;;;;141.20;129.40;;;;;;;;;;5008023;28;25140;-70
2023/11/16 06:55:45;;;;;;;138.93;127.70;;;;;;;;;;5005431;28;25082;-71
2023/11/16 06:58:12;;;;;;;142.80;130.63;;;;;;;;;;4999744;28;25098;-71
2023/11/16 07:00:38;;;;;;;140.82;128.85;;;;;;;;;;5003878;28;25061;-69
2023/11/16 07:03:07;;;;;;;139.07;128.05;;;;;;;;;;5005055;28;25060;-69
2023/11/16 07:05:33;;;;;;;144.00;133.00;;;;;;;;;;5008811;28;25062;-70
2023/11/16 07:07:59;;;;;;;137.55;126.53;;;;;;;;;;5002133;28;25072;-69
2023/11/16 07:10:25;;;;;;;138.75;127.35;;;;;;;;;;5008301;28;25138;-68
2023/11/16 07:12:51;;;;;;;148.55;136.80;;;;;;;;;;5005849;28;25126;-69
2023/11/16 07:15:20;;;;;;;139.25;127.90;;;;;;;;;;5008901;28;25085;-70
2023/11/16 07:17:46;;;;;;;142.55;130.82;;;;;;;;;;5008151;28;25053;-70
2023/11/16 07:20:13;;;;;;;144.18;132.68;;;;;;;;;;5002357;28;25075;-70
2023/11/16 07:22:39;;;;;;;140.00;127.85;;;;;;;;;;5006886;28;25126;-70
2023/11/16 07:25:07;;;;;;;141.48;129.48;;;;;;;;;;5005317;28;25082;-69
2023/11/16 07:27:34;;;;;;;122.68;113.32;;;;;;;;;;5003001;28;25048;-70
2023/11/16 07:30:00;;;;;;;128.25;117.80;;;;;;;;;;4999747;28;25108;-68
2023/11/16 07:32:26;;;;;;;126.15;115.88;;;;;;;;;;5006098;28;25063;-69
2023/11/16 07:34:52;;;;;;;127.97;117.80;;;;;;;;;;5008929;28;25099;-69
2023/11/16 07:37:18;;;;;;;125.32;114.72;;;;;;;;;;5003114;28;25076;-70
2023/11/16 07:39:44;;;;;;;126.22;115.72;;;;;;;;;;5006562;28;25069;-70
2023/11/16 07:42:11;;;;;;;128.07;118.22;;;;;;;;;;5008171;28;25141;-70
2023/11/16 07:44:38;;;;;;;129.23;118.40;;;;;;;;;;5004752;28;25098;-70
2023/11/16 07:47:04;;;;;;;126.22;115.75;;;;;;;;;;5010156;28;25053;-70
2023/11/16 07:49:33;;;;;;;126.65;115.38;;;;;;;;;;5010312;28;25082;-69
2023/11/16 07:52:00;;;;;;;123.65;113.43;;;;;;;;;;5010842;28;25051;-71
2023/11/16 07:54:28;;;;;;;123.03;113.38;;;;;;;;;;5011829;28;25074;-70
2023/11/16 07:57:01;;;;;;;127.88;117.00;;;;;;;;;;5010830;28;25081;-69
2023/11/16 07:59:31;;;;;;;123.65;113.43;;;;;;;;;;5008880;28;25164;-70
2023/11/16 08:02:00;;;;;;;127.18;115.82;;;;;;;;;;5005259;28;25070;-69
2023/11/16 08:04:26;;;;;;;123.82;113.05;;;;;;;;;;5006671;28;25069;-70
2023/11/16 08:06:56;;;;;;;123.70;113.40;;;;;;;;;;5012106;28;25087;-70
2023/11/16 08:09:24;;;;;;;122.00;112.00;;;;;;;;;;5010254;28;25170;-70
2023/11/16 08:11:53;;;;;;;118.63;108.50;;;;;;;;;;5007049;28;25129;-70
2023/11/16 08:14:20;;;;;;;114.30;104.80;;;;;;;;;;5006184;28;25062;-69
2023/11/16 08:16:49;;;;;;;118.00;107.82;;;;;;;;;;5003155;28;25071;-69
2023/11/16 08:19:15;;;;;;;115.68;106.10;;;;;;;;;;5004285;28;25077;-70
2023/11/16 08:21:41;;;;;;;116.20;106.50;;;;;;;;;;4997905;28;25074;-70
2023/11/16 08:24:08;;;;;;;117.78;108.22;;;;;;;;;;4998163;28;25166;-69
2023/11/16 08:26:35;;;;;;;118.82;109.22;;;;;;;;;;5004726;28;25174;-70
2023/11/16 08:29:01;;;;;;;117.72;107.70;;;;;;;;;;5001706;28;25080;-70
2023/11/16 08:31:28;;;;;;;114.65;105.15;;;;;;;;;;5002348;28;25085;-68
2023/11/16 08:33:54;;;;;;;112.50;103.32;;;;;;;;;;5007569;28;25154;-68
2023/11/16 08:36:20;;;;;;;107.30;98.53;;;;;;;;;;5004986;28;25059;-68
2023/11/16 08:38:46;;;;;;;108.60;100.03;;;;;;;;;;5006143;28;25057;-69
2023/11/16 08:41:16;;;;;;;107.60;98.57;;;;;;;;;;5006212;28;25067;-69
2023/11/16 08:43:46;;;;;;;106.57;97.80;;;;;;;;;;5004211;28;25130;-69
2023/11/16 08:46:20;;;;;;;106.93;98.20;;;;;;;;;;5004620;28;25106;-69
2023/11/16 08:48:47;;;;;;;102.05;94.28;;;;;;;;;;5002477;28;25065;-69
2023/11/16 08:51:15;;;;;;;103.90;95.13;;;;;;;;;;5006470;28;25073;-68
2023/11/16 08:53:43;;;;;;;99.43;91.20;;;;;;;;;;5000472;28;25072;-69
2023/11/16 08:56:09;;;;;;;100.68;92.68;;;;;;;;;;5005050;28;25131;-69
2023/11/16 08:58:44;;;;;;;95.43;88.18;;;;;;;;;;5005962;28;25161;-68
2023/11/16 09:01:12;;;;;;;100.82;92.10;;;;;;;;;;5005082;28;25061;-70
2023/11/16 09:03:45;;;;;;;100.07;91.45;;;;;;;;;;5005701;28;25074;-69
2023/11/16 09:06:15;;;;;;;103.47;95.43;;;;;;;;;;5007044;28;25153;-69
2023/11/16 09:08:42;;;;;;;103.70;95.57;;;;;;;;;;5004501;28;25069;-69
2023/11/16 09:11:08;;;;;;;103.32;95.10;;;;;;;;;;5006827;28;25079;-69
2023/11/16 09:13:34;;;;;;;98.80;90.82;;;;;;;;;;5006744;28;25065;-70
2023/11/16 09:16:00;;;;;;;97.97;90.28;;;;;;;;;;5006710;28;25097;-69
2023/11/16 09:18:27;;;;;;;99.18;90.55;;;;;;;;;;5005363;28;25096;-69
2023/11/16 09:20:56;;;;;;;97.20;89.43;;;;;;;;;;5005849;28;25170;-68
2023/11/16 09:23:25;;;;;;;101.07;93.60;;;;;;;;;;5004455;28;25174;-69
2023/11/16 09:25:54;;;;;;;103.82;95.82;;;;;;;;;;5001548;28;25086;-68
2023/11/16 09:28:22;;;;;;;101.43;93.75;;;;;;;;;;5001506;28;25069;-69
2023/11/16 09:30:50;;;;;;;96.65;88.85;;;;;;;;;;5000767;28;25139;-69
2023/11/16 09:33:18;;;;;;;103.82;95.60;;;;;;;;;;5007637;28;25125;-69
2023/11/16 09:35:49;;;;;;;104.55;96.28;;;;;;;;;;5005665;28;25060;-69
2023/11/16 09:38:15;;;;;;;103.25;94.93;;;;;;;;;;5006568;28;25064;-69
2023/11/16 09:40:41;;;;;;;108.32;99.85;;;;;;;;;;5005051;28;25141;-69
2023/11/16 09:43:17;;;;;;;112.07;102.63;;;;;;;;;;5006118;28;25069;-69
2023/11/16 09:45:49;;;;;;;110.95;102.05;;;;;;;;;;5005630;28;25083;-70
2023/11/16 09:48:20;;;;;;;111.85;102.70;;;;;;;;;;5001665;28;25072;-70
2023/11/16 09:50:48;;;;;;;113.43;104.55;;;;;;;;;;5002348;28;25055;-69
2023/11/16 09:53:16;;;;;;;113.00;104.10;;;;;;;;;;5004005;28;25140;-69
2023/11/16 09:55:49;;;;;;;116.28;106.85;;;;;;;;;;5005139;28;25070;-69
2023/11/16 09:58:21;;;;;;;120.68;110.80;;;;;;;;;;5001629;28;25154;-69
2023/11/16 10:00:48;;;;;;;118.40;109.43;;;;;;;;;;5005792;28;25065;-68
2023/11/16 10:03:19;;;;;;;116.25;107.47;;;;;;;;;;5004739;28;25046;-69
2023/11/16 10:05:46;;;;;;;110.85;102.85;;;;;;;;;;5006023;28;25064;-69
2023/11/16 10:08:14;;;;;;;112.32;103.93;;;;;;;;;;5004335;28;25074;-68
2023/11/16 10:10:57;;;;;;;109.28;100.70;;;;;;;;;;5004789;28;25088;-69
2023/11/16 10:13:28;;;;;;;110.63;101.82;;;;;;;;;;5002216;28;25135;-69
2023/11/16 10:15:59;;;;;;;110.30;101.68;;;;;;;;;;5005285;28;25085;-70
2023/11/16 10:18:25;;;;;;;109.45;101.25;;;;;;;;;;5006814;28;25064;-68
2023/11/16 10:20:53;;;;;;;107.32;99.28;;;;;;;;;;5004805;28;25062;-70
2023/11/16 10:23:19;;;;;;;115.95;106.75;;;;;;;;;;5005071;28;25041;-69
2023/11/16 10:25:48;;;;;;;115.78;106.70;;;;;;;;;;5006742;28;25053;-70
2023/11/16 10:28:19;;;;;;;115.10;106.03;;;;;;;;;;5002744;28;25055;-69
2023/11/16 10:30:46;;;;;;;109.60;101.28;;;;;;;;;;5006233;28;25088;-70
2023/11/16 10:33:17;;;;;;;112.75;104.15;;;;;;;;;;5003516;28;25049;-70
2023/11/16 10:35:47;;;;;;;108.43;99.75;;;;;;;;;;5006784;28;25118;-70
2023/11/16 10:38:15;;;;;;;109.38;100.47;;;;;;;;;;5010671;28;25077;-71
2023/11/16 10:40:42;;;;;;;106.20;98.03;;;;;;;;;;5008710;28;25075;-68
2023/11/16 10:43:09;;;;;;;108.15;99.72;;;;;;;;;;5002933;28;25074;-69
2023/11/16 10:45:35;;;;;;;104.35;96.22;;;;;;;;;;5005621;28;25076;-70
2023/11/16 10:48:05;;;;;;;104.47;96.18;;;;;;;;;;5003722;28;25072;-69
2023/11/16 10:50:32;;;;;;;101.65;93.53;;;;;;;;;;5002624;28;25072;-69
2023/11/16 10:53:01;;;;;;;100.22;92.97;;;;;;;;;;5005275;28;25061;-70
2023/11/16 10:55:29;;;;;;;105.93;97.55;;;;;;;;;;5005286;28;25057;-70
2023/11/16 10:58:04;;;;;;;104.57;96.43;;;;;;;;;;5003605;28;25090;-70
2023/11/16 11:00:34;;;;;;;107.97;99.88;;;;;;;;;;5001435;28;25054;-71
2023/11/16 11:03:01;;;;;;;107.75;99.55;;;;;;;;;;5005601;28;25064;-69
2023/11/16 11:05:30;;;;;;;111.70;102.75;;;;;;;;;;5006276;28;25087;-70
2023/11/16 11:07:57;;;;;;;111.90;103.50;;;;;;;;;;5005202;28;25051;-70
2023/11/16 11:10:24;;;;;;;107.63;98.72;;;;;;;;;;5006369;28;25057;-70
2023/11/16 11:12:50;;;;;;;105.82;97.78;;;;;;;;;;5005960;28;25072;-69
2023/11/16 11:15:34;;;;;;;104.05;96.38;;;;;;;;;;5002406;28;25070;-70
2023/11/16 11:18:00;;;;;;;104.35;96.38;;;;;;;;;;5007608;28;25074;-70
2023/11/16 11:20:44;;;;;;;111.47;102.15;;;;;;;;;;5003107;28;25119;-71
2023/11/16 11:23:13;;;;;;;114.72;105.30;;;;;;;;;;5004424;28;25056;-70
2023/11/16 11:25:41;;;;;;;112.68;103.78;;;;;;;;;;5004851;28;25058;-71
2023/11/16 11:28:08;;;;;;;116.10;106.40;;;;;;;;;;5003743;28;25056;-70
2023/11/16 11:30:37;;;;;;;115.72;106.63;;;;;;;;;;5003180;28;25069;-69
2023/11/16 11:33:06;;;;;;;112.95;103.03;;;;;;;;;;5002583;28;25062;-69
2023/11/16 11:35:37;;;;;;;115.20;105.32;;;;;;;;;;5009483;28;25064;-70
2023/11/16 11:38:14;;;;;;;114.97;105.18;;;;;;;;;;5011878;28;25063;-71
2023/11/16 11:40:40;;;;;;;115.00;105.32;;;;;;;;;;5008412;28;25058;-69
2023/11/16 11:43:07;;;;;;;120.13;109.72;;;;;;;;;;5011995;28;25094;-69
2023/11/16 11:45:35;;;;;;;119.55;109.45;;;;;;;;;;5009527;28;25062;-71
2023/11/16 11:48:03;;;;;;;124.28;113.03;;;;;;;;;;5014556;28;25069;-70
2023/11/16 11:50:34;;;;;;;123.40;112.10;;;;;;;;;;5008643;28;25060;-72
2023/11/16 11:53:01;;;;;;;125.20;113.53;;;;;;;;;;5006925;28;25078;-71
2023/11/16 11:55:29;;;;;;;128.40;116.82;;;;;;;;;;5008365;28;25092;-72
2023/11/16 11:57:56;;;;;;;129.63;117.35;;;;;;;;;;5009739;28;25067;-70
2023/11/16 12:00:22;;;;;;;130.50;118.38;;;;;;;;;;5007904;28;25052;-73
2023/11/16 12:02:50;;;;;;;129.88;117.95;;;;;;;;;;5007060;28;25053;-72
2023/11/16 12:05:17;;;;;;;125.28;114.60;;;;;;;;;;5007216;28;25072;-72
2023/11/16 12:07:43;;;;;;;122.55;111.05;;;;;;;;;;5006066;28;25067;-71
2023/11/16 12:10:09;;;;;;;121.57;110.68;;;;;;;;;;5004879;28;25073;-72
2023/11/16 12:12:38;;;;;;;125.57;114.70;;;;;;;;;;5004351;28;25073;-70
2023/11/16 12:15:05;;;;;;;126.82;115.53;;;;;;;;;;5005249;28;25171;-71
2023/11/16 12:17:31;;;;;;;122.43;111.55;;;;;;;;;;5007363;28;25106;-70
2023/11/16 12:19:58;;;;;;;125.72;114.18;;;;;;;;;;5006242;28;25112;-70
2023/11/16 12:22:26;;;;;;;126.97;114.13;;;;;;;;;;5005687;28;25104;-70
2023/11/16 12:24:52;;;;;;;121.75;110.78;;;;;;;;;;5007242;28;25141;-70
2023/11/16 12:27:19;;;;;;;123.97;112.38;;;;;;;;;;5007446;28;25106;-68
2023/11/16 12:30:00;;;;;;;120.60;109.82;;;;;;;;;;5005967;28;25063;-69
2023/11/16 12:32:26;;;;;;;118.45;107.85;;;;;;;;;;5002356;28;25067;-68
2023/11/16 12:34:54;;;;;;;117.63;106.97;;;;;;;;;;5003452;28;25076;-69
2023/11/16 12:37:21;;;;;;;116.97;106.22;;;;;;;;;;5006490;28;25077;-68
2023/11/16 12:39:49;;;;;;;116.40;106.18;;;;;;;;;;5007900;28;25056;-68
2023/11/16 12:42:15;;;;;;;127.57;116.90;;;;;;;;;;5004617;28;25093;-69
2023/11/16 12:44:43;;;;;;;130.73;119.05;;;;;;;;;;5008088;28;25069;-69
2023/11/16 12:47:09;;;;;;;128.00;117.05;;;;;;;;;;5005758;28;25065;-70
2023/11/16 12:49:35;;;;;;;125.78;114.05;;;;;;;;;;5005281;28;25107;-69
2023/11/16 12:52:01;;;;;;;119.65;108.68;;;;;;;;;;5006263;28;25147;-69
2023/11/16 12:54:27;;;;;;;123.43;111.97;;;;;;;;;;5006514;28;25126;-69
2023/11/16 12:56:53;;;;;;;121.55;111.00;;;;;;;;;;5002942;28;25067;-70
2023/11/16 12:59:19;;;;;;;120.50;110.20;;;;;;;;;;5005024;28;25120;-70
2023/11/16 13:01:45;;;;;;;117.05;106.93;;;;;;;;;;5002617;28;25060;-69
2023/11/16 13:04:11;;;;;;;115.63;105.13;;;;;;;;;;5007497;28;25074;-69
2023/11/16 13:06:38;;;;;;;116.95;105.88;;;;;;;;;;5004865;28;25070;-69
2023/11/16 13:09:04;;;;;;;114.28;104.03;;;;;;;;;;5007122;28;25130;-69
2023/11/16 13:11:30;;;;;;;114.05;104.20;;;;;;;;;;5003224;28;26196;-68
2023/11/16 13:13:56;;;;;;;114.22;103.50;;;;;;;;;;5005302;28;25053;-69
2023/11/16 13:16:23;;;;;;;112.80;103.25;;;;;;;;;;5006265;28;25154;-70
2023/11/16 13:18:52;;;;;;;109.93;100.28;;;;;;;;;;5006023;28;25129;-70
2023/11/16 13:21:18;;;;;;;102.80;93.28;;;;;;;;;;5005577;28;25120;-70
2023/11/16 13:23:44;;;;;;;103.97;94.50;;;;;;;;;;5006779;28;25055;-72
2023/11/16 13:26:10;;;;;;;100.63;91.82;;;;;;;;;;5004563;28;25062;-69
2023/11/16 13:28:36;;;;;;;104.65;95.32;;;;;;;;;;5001703;28;25137;-69
2023/11/16 13:31:03;;;;;;;95.72;87.00;;;;;;;;;;5005370;28;25066;-69
2023/11/16 13:33:30;;;;;;;93.43;84.68;;;;;;;;;;5004340;28;25059;-69
2023/11/16 13:35:56;;;;;;;93.18;85.13;;;;;;;;;;5004604;28;25073;-70
2023/11/16 13:38:22;;;;;;;93.90;84.90;;;;;;;;;;5006786;28;25076;-71
2023/11/16 13:40:49;;;;;;;92.18;83.57;;;;;;;;;;5005700;28;25128;-70
2023/11/16 13:43:15;;;;;;;90.63;82.72;;;;;;;;;;5003168;28;25059;-69
2023/11/16 13:45:42;;;;;;;96.88;87.65;;;;;;;;;;5001958;28;25116;-70
2023/11/16 13:48:08;;;;;;;87.93;80.50;;;;;;;;;;5003895;28;25114;-70
2023/11/16 13:50:34;;;;;;;88.90;80.28;;;;;;;;;;5004217;28;25152;-70
2023/11/16 13:53:00;;;;;;;86.53;78.43;;;;;;;;;;5004688;28;25063;-69
2023/11/16 13:55:26;;;;;;;92.22;83.50;;;;;;;;;;5003089;28;25058;-69
2023/11/16 13:57:53;;;;;;;91.95;82.68;;;;;;;;;;5004380;28;25108;-70